Siletz, OR

7:13 PM PDT on September 21, 2014 (GMT -0700)
Rural Siletz | Change Station
CLOSE
Current Station
Personal Weather Station
Location: Siletz, OR
Elevation: 190 ft
Nearby Weather Stations

Elev 190 ft 44.71 °N, 123.92 °W | Updated 14 minutes ago

Mostly Cloudy
Mostly Cloudy
60.8 °F
Feels Like 60.8 °F
N
3.0
Wind Variable Wind from WNW
Gusts 7.0 mph

Today
High -- | Low -- °F
--% Chance of Precip.
Yesterday
High -- | Low -- °F
Precip. -- in
7:01 AM 7:14 PM
Waning Crescent, 4% visible
Pressure 30.00 in
Visibility 5.0 miles
Clouds Overcast 800 ft
Dew Point 58 °F
Humidity 90%
Rainfall 0.00 in
Snow Depth 0 in , 0 in , 0 in
UV 0 out of 12
Pollen 2.20 out of 12
Air Quality Not available.
Flu Activity Not available.
METAR KONP 220155Z AUTO 20012G19KT 5SM BR OVC008 15/13 A3000 RMK AO2

More Conditions Fewer Conditions

Pressure 30.00 in
Visibility 5.0 miles
Clouds Overcast 800 ft
Dew Point 58 °F
Humidity 90%
Rainfall 0.00 in
Snow Depth 0 in , 0 in , 0 in
UV 0 out of 12
Pollen 2.20 out of 12
Air Quality Not available.
Flu Activity Not available.
METAR KONP 220155Z AUTO 20012G19KT 5SM BR OVC008 15/13 A3000 RMK AO2

More Conditions Fewer Conditions

10-Day Weather Forecast

Almanac

Astronomy

Sep. 21, 2014 Rise Set
Actual Time 7:01 AM PDT 7:14 PM PDT
Civil Twilight 6:32 AM PDT 7:43 PM PDT
Nautical Twilight 5:58 AM PDT 8:18 PM PDT
Astronomical Twilight 5:22 AM PDT 8:53 PM PDT
Moon 4:35 AM PDT (9/21) 5:57 PM PDT (9/21)
Length of Visible Light 13h 11m
Length of Day
12h 13m
Tomorrow will be 3m 6s shorter.
Waning Crescent, 4% of the Moon is Illuminated
Today
Waning Crescent
Sep 24
New
Oct 1
First Quarter
Oct 8
Full
Oct 15
Last Quarter

Today's Extremes

State Highs State Lows

Community

WunderPhotos

Upload Photos

1,755,347 photos uploaded!

WunderBlogs® & News

Nearby

Snow Depth

Station Depth Elevation
Strawberry 0 in 5760 ft
Clear Lake 0 in 3500 ft
Irish Taylor 0 in 5500 ft
Arbuckle Mountain 0 in 5400 ft
Fish Creek 0 in 7900 ft

Earthquake Activity

City Distance Mag. Time & Date
No recent earthquake activity has been reported nearby.
Minimum magnitude displayed is 2.5.

Coastal Water Temperatures

Place Temperature
South Beach, OR 57.9 °F
Charleston, OR 57.0 °F

Nearby Weather Stations